Gaylord, MI (49735)

8:04 PM EDT on July 06, 2015 (GMT -0400)
Castlewood Drive | | Change Station
CLOSE
Current Station
Personal Weather Station
Location: Gaylord, MI
Elevation: 1315 ft
Nearby Weather Stations

Elev 1315 ft 44.99 °N, 84.66 °W | Updated 46 seconds ago

Clear
Clear
77.2 °F
Feels Like 79 °F
N
0.0
Wind Variable Wind from SSW
Gusts 0.0 mph

Today
High -- | Low -- °F
--% Chance of Precip.
Yesterday
High -- | Low -- °F
Precip. -- in
5:58 AM 9:27 PM
Waning Gibbous, 71% visible
Pressure 29.82 in
Visibility 5.0 miles
Clouds Clear
Heat Index 79 °F
Dew Point 64 °F
Humidity 65%
Rainfall 0.00 in
Snow Depth Not available.
UV 0.0 out of 12
Pollen 4.90 out of 12
Air Quality Not available.
Flu Activity Not available.
METAR KGLR 062353Z AUTO 19014KT 5SM HZ CLR 26/17 A2984 RMK AO2 SLP097 T02610167 10289 20261 56020

More Conditions Fewer Conditions

Pressure 29.82 in
Visibility 5.0 miles
Clouds Clear
Heat Index 79 °F
Dew Point 64 °F
Humidity 65%
Rainfall 0.00 in
Snow Depth Not available.
UV 0.0 out of 12
Pollen 4.90 out of 12
Air Quality Not available.
Flu Activity Not available.
METAR KGLR 062353Z AUTO 19014KT 5SM HZ CLR 26/17 A2984 RMK AO2 SLP097 T02610167 10289 20261 56020

More Conditions Fewer Conditions

Nowcast | as of 8:00 PM EDT on July 6, 2015

At 9 PM...mostly cloudy. Slight chance of showers. Temperature 77. South winds 15 mph. At 11 PM...mostly cloudy. Scattered showers. Temperature 74. Southwest winds 13 mph. At 1 am...mostly cloudy. Scattered showers. Temperature 71. Southwest winds 12 mph. At 3 am...periods of thunderstorms. Temperature 67. West winds 9 mph.

×

10-Day Weather Forecast

×

Almanac

Astronomy

Jul. 06, 2015 Rise Set
Actual Time
Civil Twilight
Nautical Twilight
Astronomical Twilight
Moon
Length of Visible Light
Length of Day
Tomorrow will be .
, % of the Moon is Illuminated

Today's Extremes

State Highs State Lows

Community

WunderPhotos

Upload Photos

1,835,692 photos uploaded!

WunderBlogs® & News

Nearby

Air Quality

  Air Quality AQ Index Pollutant
Not available.

Snow Depth

Station Depth Elevation

Earthquake Activity

City Distance Mag. Time & Date
Minimum magnitude displayed is 2.5.

Coastal Water Temperatures

Place Temperature

Stations

Nearby Weather Stations

Station Location Temp. Windchill Dew Point Humidity Wind Precip. Elev Updated Type